Pagina principale
METAR-TAF:

METAR-TAF

Aeroporti :

Dübendorf, Svizzera

latitudine: 47-23-55N, longitudine: 8-38-53E, altezza: 448 m

Osservazione

Il bollettino è stato emesso 42 minuti fa, alle 02:50 UTC
Vento 9 kt da nord/nord-est, variando fra nord e est
Temperature 6°C
Umidità 81%
Pressione 1032 hPa
Visibilità 10 km o più
Cielo coperto ad un'altezza di 1600 ft

METAR: LSMD 270250Z AUTO 03009KT 350V080 9999NDV OVC016 06/03 Q1032 RMK

Ora: 04:32 (03:32 UTC)


TAF: mancante

Osservazioni e previsioni meteorologiche di più di 4000 aeroporti (messaggi METAR e TAF).

Le stazioni disponibili sono rappresentate dai dischi gialli e rossi sulla carta.

Puntare il mouse per vedere il nome della stazione.

Clicca sopra per visualizzare le osservazioni e previsioni meteorologiche.

Per cambiare la mappa : fare clic sui pulsanti verdi con una croce nera per ingrandire, il pulsante verde con un trattino per diminuire, o sulla freccia verde per le mappe adiacenti.


METAR-TAF: